createdAt,value
2022-08-01T04:00:24.657Z,0.00
2022-08-01T04:01:24.644Z,0.00
2022-08-01T04:02:24.597Z,0.00
2022-08-01T04:03:24.656Z,0.00
2022-08-01T04:04:24.572Z,0.00
2022-08-01T04:05:24.563Z,0.00
2022-08-01T04:06:24.560Z,0.00
2022-08-01T04:07:24.562Z,0.00
2022-08-01T04:08:29.328Z,0.00
2022-08-01T04:09:25.516Z,0.00
2022-08-01T04:10:24.513Z,5.62
2022-08-01T04:11:29.521Z,5.62
2022-08-01T04:12:24.569Z,5.62
2022-08-01T04:13:24.483Z,5.62
2022-08-01T04:14:24.459Z,5.62
2022-08-01T04:15:24.449Z,5.62
2022-08-01T04:16:24.437Z,5.62
2022-08-01T04:17:24.427Z,5.62
2022-08-01T04:18:24.430Z,5.62
2022-08-01T04:19:24.416Z,5.62
2022-08-01T04:20:24.405Z,5.62
2022-08-01T04:21:24.387Z,5.62
2022-08-01T04:22:29.393Z,5.62
2022-08-01T04:23:24.385Z,5.62
2022-08-01T04:24:24.348Z,5.62
2022-08-01T04:25:24.341Z,5.62
2022-08-01T04:26:24.339Z,5.62
2022-08-01T04:27:49.863Z,5.62
2022-08-01T04:28:25.340Z,11.25
2022-08-01T04:29:24.310Z,5.62
2022-08-01T04:30:24.284Z,11.25
2022-08-01T04:31:24.275Z,11.25
2022-08-01T04:32:24.261Z,11.25
2022-08-01T04:33:29.300Z,11.25
2022-08-01T04:34:24.263Z,11.25
2022-08-01T04:36:01.783Z,16.88
2022-08-01T04:36:25.218Z,16.88
2022-08-01T04:37:24.208Z,16.88
2022-08-01T04:38:24.516Z,16.88
2022-08-01T04:39:24.206Z,16.88
2022-08-01T04:40:24.184Z,22.50
2022-08-01T04:41:24.162Z,22.50
2022-08-01T04:42:28.205Z,22.50
2022-08-01T04:43:25.173Z,22.50
2022-08-01T04:44:32.585Z,22.50
2022-08-01T04:45:24.169Z,22.50
2022-08-01T04:46:24.115Z,22.50
2022-08-01T04:47:24.108Z,22.50
2022-08-01T04:48:24.185Z,16.88
2022-08-01T04:49:24.144Z,16.88
2022-08-01T04:50:24.062Z,16.88
2022-08-01T04:51:24.052Z,16.88
2022-08-01T04:52:25.003Z,16.88
2022-08-01T04:53:24.040Z,16.88
2022-08-01T04:54:24.013Z,16.88
2022-08-01T04:55:29.026Z,16.88
2022-08-01T04:56:23.993Z,22.50
2022-08-01T04:57:23.978Z,28.12
2022-08-01T04:58:23.985Z,28.12
2022-08-01T04:59:23.960Z,28.12
2022-08-01T05:00:23.954Z,28.12
2022-08-01T05:01:23.998Z,22.50
2022-08-01T05:02:23.922Z,22.50
2022-08-01T05:03:23.920Z,22.50
2022-08-01T05:04:23.899Z,28.12
2022-08-01T05:05:23.907Z,28.12
2022-08-01T05:06:28.907Z,28.12
2022-08-01T05:07:23.908Z,28.12
2022-08-01T05:08:23.876Z,28.12
2022-08-01T05:09:26.118Z,28.12
2022-08-01T05:10:24.855Z,28.12
2022-08-01T05:11:23.824Z,33.75
2022-08-01T05:12:23.819Z,33.75
2022-08-01T05:13:23.838Z,33.75
2022-08-01T05:14:23.799Z,33.75
2022-08-01T05:15:23.790Z,33.75
2022-08-01T05:16:23.760Z,33.75
2022-08-01T05:17:28.815Z,33.75
2022-08-01T05:18:26.146Z,33.75
2022-08-01T05:19:23.746Z,33.75
2022-08-01T05:20:23.715Z,33.75
2022-08-01T05:21:23.705Z,33.75
2022-08-01T05:22:24.304Z,33.75
2022-08-01T05:23:31.061Z,28.12
2022-08-01T05:24:24.727Z,28.12
2022-08-01T05:25:56.356Z,28.12
2022-08-01T05:26:24.692Z,28.12
2022-08-01T05:27:23.651Z,28.12
2022-08-01T05:28:29.043Z,33.75
2022-08-01T05:29:23.651Z,39.38
2022-08-01T05:30:23.629Z,45.00
2022-08-01T05:31:23.907Z,50.62
2022-08-01T05:32:23.590Z,45.00
2022-08-01T05:33:23.570Z,39.38
2022-08-01T05:34:23.594Z,39.38
2022-08-01T05:35:23.575Z,39.38
2022-08-01T05:36:24.608Z,45.00
2022-08-01T05:37:23.545Z,50.62
2022-08-01T05:38:23.512Z,56.25
2022-08-01T05:39:28.623Z,56.25
2022-08-01T05:40:23.571Z,56.25
2022-08-01T05:41:23.477Z,56.25
2022-08-01T05:42:23.478Z,50.62
2022-08-01T05:43:28.494Z,45.00
2022-08-01T05:44:24.480Z,45.00
2022-08-01T05:45:23.445Z,45.00
2022-08-01T05:46:23.433Z,50.62
2022-08-01T05:47:23.418Z,61.88
2022-08-01T05:48:23.412Z,61.88
2022-08-01T05:49:23.927Z,61.88
2022-08-01T05:50:28.412Z,67.50
2022-08-01T05:51:23.381Z,67.50
2022-08-01T05:52:23.357Z,61.88
2022-08-01T05:53:23.342Z,50.62
2022-08-01T05:54:23.336Z,50.62
2022-08-01T05:55:23.332Z,45.00
2022-08-01T05:56:23.329Z,45.00
2022-08-01T05:57:23.444Z,50.62
2022-08-01T05:58:23.298Z,56.25
2022-08-01T05:59:23.301Z,67.50
2022-08-01T06:00:23.265Z,67.50
2022-08-01T06:01:28.283Z,67.50
2022-08-01T06:02:23.348Z,67.50
2022-08-01T06:03:23.241Z,67.50
2022-08-01T06:04:23.499Z,67.50
2022-08-01T06:05:23.222Z,84.38
2022-08-01T06:06:25.516Z,78.75
2022-08-01T06:07:23.295Z,78.75
2022-08-01T06:08:23.174Z,73.12
2022-08-01T06:09:23.257Z,90.00
2022-08-01T06:10:23.147Z,78.75
2022-08-01T06:11:23.133Z,67.50
2022-08-01T06:12:31.271Z,61.88
2022-08-01T06:13:24.109Z,67.50
2022-08-01T06:14:23.180Z,78.75
2022-08-01T06:15:23.093Z,67.50
2022-08-01T06:16:23.085Z,61.88
2022-08-01T06:17:23.084Z,61.88
2022-08-01T06:18:23.059Z,61.88
2022-08-01T06:19:23.098Z,56.25
2022-08-01T06:20:23.060Z,61.88
2022-08-01T06:21:23.024Z,61.88
2022-08-01T06:22:23.007Z,56.25
2022-08-01T06:23:32.126Z,56.25
2022-08-01T06:24:23.013Z,56.25
2022-08-01T06:25:22.989Z,56.25
2022-08-01T06:26:22.962Z,56.25
2022-08-01T06:27:22.995Z,50.62
2022-08-01T06:28:22.940Z,50.62
2022-08-01T06:29:22.948Z,61.88
2022-08-01T06:30:22.919Z,61.88
2022-08-01T06:31:22.921Z,67.50
2022-08-01T06:32:26.507Z,73.12
2022-08-01T06:33:22.889Z,67.50
2022-08-01T06:34:27.904Z,45.00
2022-08-01T06:35:22.862Z,50.62
2022-08-01T06:36:22.853Z,61.88
2022-08-01T06:37:22.849Z,67.50
2022-08-01T06:38:22.837Z,61.88
2022-08-01T06:39:22.832Z,67.50
2022-08-01T06:40:22.805Z,67.50
2022-08-01T06:41:22.801Z,56.25
2022-08-01T06:42:22.782Z,50.62
2022-08-01T06:43:22.774Z,56.25
2022-08-01T06:44:22.772Z,67.50
2022-08-01T06:45:27.775Z,67.50
2022-08-01T06:46:22.737Z,112.50
2022-08-01T06:47:22.730Z,61.88
2022-08-01T06:48:22.722Z,67.50
2022-08-01T06:49:22.771Z,67.50
2022-08-01T06:50:22.693Z,61.88
2022-08-01T06:51:22.683Z,78.75
2022-08-01T06:52:22.685Z,73.12
2022-08-01T06:53:22.660Z,67.50
2022-08-01T06:54:22.685Z,67.50
2022-08-01T06:55:22.639Z,67.50
2022-08-01T06:56:27.650Z,67.50
2022-08-01T06:57:22.613Z,61.88
2022-08-01T06:58:22.621Z,67.50
2022-08-01T06:59:23.606Z,78.75
2022-08-01T07:00:22.580Z,78.75
2022-08-01T07:01:22.643Z,78.75
2022-08-01T07:02:22.556Z,73.12
2022-08-01T07:03:22.553Z,73.12
2022-08-01T07:04:22.553Z,73.12
2022-08-01T07:05:22.523Z,78.75
2022-08-01T07:06:22.513Z,84.38
2022-08-01T07:07:27.529Z,90.00
2022-08-01T07:08:22.535Z,84.38
2022-08-01T07:09:22.493Z,78.75
2022-08-01T07:10:22.473Z,78.75
2022-08-01T07:11:22.485Z,73.12
2022-08-01T07:12:22.518Z,78.75
2022-08-01T07:13:22.435Z,73.12
2022-08-01T07:14:22.435Z,73.12
2022-08-01T07:15:22.414Z,78.75
2022-08-01T07:16:22.401Z,84.38
2022-08-01T07:17:22.393Z,73.12
2022-08-01T07:18:27.408Z,67.50
2022-08-01T07:19:22.380Z,78.75
2022-08-01T07:20:22.447Z,101.25
2022-08-01T07:21:40.368Z,118.12
2022-08-01T07:22:23.763Z,129.38
2022-08-01T07:23:22.750Z,112.50
2022-08-01T07:24:23.330Z,106.88
2022-08-01T07:25:22.300Z,106.88
2022-08-01T07:26:22.285Z,123.75
2022-08-01T07:27:25.374Z,146.25
2022-08-01T07:28:22.262Z,140.62
2022-08-01T07:29:27.318Z,129.38
2022-08-01T07:30:22.297Z,118.12
2022-08-01T07:31:22.233Z,123.75
2022-08-01T07:32:22.217Z,118.12
2022-08-01T07:33:22.220Z,112.50
2022-08-01T07:34:22.235Z,118.12
2022-08-01T07:35:22.196Z,106.88
2022-08-01T07:36:24.798Z,90.00
2022-08-01T07:37:47.158Z,84.38
2022-08-01T07:38:23.165Z,95.62
2022-08-01T07:39:22.152Z,95.62
2022-08-01T07:40:27.186Z,106.88
2022-08-01T07:41:22.129Z,112.50
2022-08-01T07:42:23.197Z,112.50
2022-08-01T07:43:22.098Z,112.50
2022-08-01T07:44:22.148Z,118.12
2022-08-01T07:45:22.085Z,129.38
2022-08-01T07:46:22.064Z,129.38
2022-08-01T07:47:22.052Z,106.88
2022-08-01T07:48:22.080Z,95.62
2022-08-01T07:49:22.091Z,78.75
2022-08-01T07:50:22.079Z,67.50
2022-08-01T07:51:27.028Z,78.75
2022-08-01T07:52:21.993Z,90.00
2022-08-01T07:53:21.989Z,95.62
2022-08-01T07:54:21.991Z,129.38
2022-08-01T07:55:22.999Z,135.00
2022-08-01T07:56:21.977Z,135.00
2022-08-01T07:57:21.941Z,146.25
2022-08-01T07:58:21.925Z,146.25
2022-08-01T07:59:24.040Z,157.50
2022-08-01T08:00:21.984Z,157.50
2022-08-01T08:01:21.971Z,168.75
2022-08-01T08:02:26.971Z,163.12
2022-08-01T08:03:21.871Z,151.88
2022-08-01T08:04:21.886Z,146.25
2022-08-01T08:05:57.866Z,163.12
2022-08-01T08:06:22.848Z,146.25
2022-08-01T08:07:21.844Z,123.75
2022-08-01T08:08:21.815Z,123.75
2022-08-01T08:09:21.827Z,123.75
2022-08-01T08:10:21.861Z,140.62
2022-08-01T08:11:21.780Z,146.25
2022-08-01T08:12:28.489Z,106.88
2022-08-01T08:13:27.879Z,140.62
2022-08-01T08:14:21.767Z,163.12
2022-08-01T08:15:22.742Z,174.38
2022-08-01T08:16:21.736Z,191.25
2022-08-01T08:17:21.715Z,168.75
2022-08-01T08:18:21.710Z,157.50
2022-08-01T08:19:21.704Z,151.88
2022-08-01T08:20:22.682Z,157.50
2022-08-01T08:21:21.673Z,163.12
2022-08-01T08:22:21.671Z,180.00
2022-08-01T08:23:41.503Z,174.38
2022-08-01T08:24:27.733Z,174.38
2022-08-01T08:25:21.632Z,174.38
2022-08-01T08:26:21.619Z,151.88
2022-08-01T08:27:21.604Z,191.25
2022-08-01T08:28:25.250Z,225.00
2022-08-01T08:29:22.595Z,185.62
2022-08-01T08:30:21.806Z,129.38
2022-08-01T08:31:24.886Z,146.25
2022-08-01T08:32:21.548Z,163.12
2022-08-01T08:33:21.537Z,163.12
2022-08-01T08:34:21.527Z,157.50
2022-08-01T08:35:47.693Z,191.25
2022-08-01T08:36:22.503Z,208.12
2022-08-01T08:37:22.490Z,191.25
2022-08-01T08:38:21.484Z,213.75
2022-08-01T08:39:22.475Z,270.00
2022-08-01T08:40:21.512Z,219.38
2022-08-01T08:41:21.535Z,185.62
2022-08-01T08:42:21.439Z,174.38
2022-08-01T08:43:21.424Z,174.38
2022-08-01T08:44:21.453Z,196.88
2022-08-01T08:45:21.421Z,168.75
2022-08-01T08:46:28.430Z,202.50
2022-08-01T08:47:21.388Z,180.00
2022-08-01T08:48:21.392Z,151.88
2022-08-01T08:49:22.471Z,151.88
2022-08-01T08:50:21.370Z,180.00
2022-08-01T08:51:21.347Z,202.50
2022-08-01T08:52:21.330Z,196.88
2022-08-01T08:53:21.313Z,230.62
2022-08-01T08:54:21.305Z,225.00
2022-08-01T08:55:21.308Z,191.25
2022-08-01T08:56:21.292Z,185.62
2022-08-01T08:57:26.288Z,151.88
2022-08-01T08:58:21.257Z,135.00
2022-08-01T08:59:21.247Z,123.75
2022-08-01T09:00:21.269Z,101.25
2022-08-01T09:01:23.048Z,106.88
2022-08-01T09:02:21.216Z,101.25
2022-08-01T09:03:21.329Z,112.50
2022-08-01T09:04:21.192Z,90.00
2022-08-01T09:05:21.207Z,73.12
2022-08-01T09:06:21.174Z,73.12
2022-08-01T09:07:21.168Z,84.38
2022-08-01T09:08:26.170Z,78.75
2022-08-01T09:09:21.142Z,90.00
2022-08-01T09:10:22.083Z,129.38
2022-08-01T09:11:22.943Z,129.38
2022-08-01T09:12:21.105Z,112.50
2022-08-01T09:13:21.102Z,101.25
2022-08-01T09:14:21.091Z,118.12
2022-08-01T09:15:21.078Z,123.75
2022-08-01T09:16:21.061Z,118.12
2022-08-01T09:17:21.044Z,151.88
2022-08-01T09:18:21.047Z,185.62
2022-08-01T09:19:40.686Z,241.88
2022-08-01T09:20:22.026Z,281.25
2022-08-01T09:21:20.999Z,326.25
2022-08-01T09:22:20.994Z,298.12
2022-08-01T09:23:20.977Z,315.00
2022-08-01T09:24:30.437Z,258.75
2022-08-01T09:25:21.970Z,230.62
2022-08-01T09:26:21.959Z,230.62
2022-08-01T09:27:22.293Z,213.75
2022-08-01T09:28:20.930Z,225.00
2022-08-01T09:29:37.085Z,213.75
2022-08-01T09:30:27.044Z,236.25
2022-08-01T09:31:20.888Z,213.75
2022-08-01T09:32:20.901Z,230.62
2022-08-01T09:33:22.294Z,230.62
2022-08-01T09:34:20.856Z,264.38
2022-08-01T09:35:20.861Z,258.75
2022-08-01T09:36:20.837Z,275.62
2022-08-01T09:37:24.246Z,399.38
2022-08-01T09:38:20.843Z,765.00
2022-08-01T09:39:20.806Z,725.62
2022-08-01T09:40:20.796Z,1153.12
2022-08-01T09:41:25.817Z,945.00
2022-08-01T09:42:29.138Z,455.62
2022-08-01T09:43:21.757Z,281.25
2022-08-01T09:44:40.031Z,219.38
2022-08-01T09:45:23.806Z,286.88
2022-08-01T09:46:20.734Z,551.25
2022-08-01T09:47:20.710Z,675.00
2022-08-01T09:48:20.705Z,343.12
2022-08-01T09:49:20.762Z,309.38
2022-08-01T09:50:20.679Z,365.62
2022-08-01T09:51:57.846Z,298.12
2022-08-01T09:52:29.027Z,331.88
2022-08-01T09:53:24.341Z,360.00
2022-08-01T09:54:21.632Z,331.88
2022-08-01T09:55:20.622Z,315.00
2022-08-01T09:56:20.621Z,213.75
2022-08-01T09:57:20.623Z,196.88
2022-08-01T09:58:20.801Z,185.62
2022-08-01T09:59:20.577Z,202.50
2022-08-01T10:00:43.912Z,213.75
2022-08-01T10:01:21.569Z,270.00
2022-08-01T10:02:20.548Z,298.12
2022-08-01T10:03:25.622Z,270.00
2022-08-01T10:04:20.530Z,230.62
2022-08-01T10:05:21.382Z,180.00
2022-08-01T10:06:20.529Z,151.88
2022-08-01T10:07:20.490Z,129.38
2022-08-01T10:08:23.118Z,146.25
2022-08-01T10:09:20.471Z,168.75
2022-08-01T10:10:20.453Z,185.62
2022-08-01T10:11:21.466Z,163.12
2022-08-01T10:12:21.438Z,157.50
2022-08-01T10:13:20.420Z,163.12
2022-08-01T10:14:25.429Z,168.75
2022-08-01T10:15:20.406Z,163.12
2022-08-01T10:16:20.398Z,157.50
2022-08-01T10:17:20.374Z,151.88
2022-08-01T10:18:25.848Z,151.88
2022-08-01T10:19:21.442Z,163.12
2022-08-01T10:20:28.970Z,157.50
2022-08-01T10:21:53.240Z,168.75
2022-08-01T10:22:21.321Z,180.00
2022-08-01T10:23:20.306Z,180.00
2022-08-01T10:24:20.325Z,174.38
2022-08-01T10:25:41.910Z,157.50
2022-08-01T10:26:21.295Z,174.38
2022-08-01T10:27:24.256Z,163.12
2022-08-01T10:28:24.068Z,151.88
2022-08-01T10:29:45.228Z,163.12
2022-08-01T10:30:23.690Z,174.38
2022-08-01T10:31:20.227Z,382.50
2022-08-01T10:32:21.220Z,309.38
2022-08-01T10:33:50.653Z,286.88
2022-08-01T10:34:23.054Z,320.62
2022-08-01T10:35:47.149Z,326.25
2022-08-01T10:36:26.196Z,275.62
2022-08-01T10:37:20.159Z,450.00
2022-08-01T10:38:20.143Z,253.12
2022-08-01T10:39:20.252Z,230.62
2022-08-01T10:40:30.816Z,241.88
2022-08-01T10:41:21.142Z,253.12
2022-08-01T10:42:20.105Z,264.38
2022-08-01T10:43:21.932Z,270.00
2022-08-01T10:44:20.078Z,275.62
2022-08-01T10:45:20.065Z,286.88
2022-08-01T10:46:20.060Z,781.88
2022-08-01T10:47:26.979Z,298.12
2022-08-01T10:48:21.292Z,309.38
2022-08-01T10:49:20.079Z,371.25
2022-08-01T10:50:25.941Z,399.38
2022-08-01T10:51:21.011Z,343.12
2022-08-01T10:52:20.002Z,759.38
2022-08-01T10:53:24.174Z,371.25
2022-08-01T10:54:20.966Z,331.88
2022-08-01T10:55:19.966Z,315.00
2022-08-01T10:56:19.960Z,331.88
2022-08-01T10:57:23.215Z,360.00
2022-08-01T10:58:25.943Z,388.12
2022-08-01T10:59:50.450Z,360.00
2022-08-01T11:00:20.901Z,315.00
2022-08-01T11:01:20.026Z,298.12
2022-08-01T11:02:19.877Z,343.12
2022-08-01T11:03:35.912Z,765.00
2022-08-01T11:04:20.856Z,720.00
2022-08-01T11:05:19.849Z,495.00
2022-08-01T11:06:19.852Z,466.88
2022-08-01T11:07:21.937Z,399.38
2022-08-01T11:08:20.822Z,579.38
2022-08-01T11:09:24.829Z,511.88
2022-08-01T11:10:23.771Z,399.38
2022-08-01T11:11:19.781Z,320.62
2022-08-01T11:12:24.618Z,286.88
2022-08-01T11:13:20.754Z,247.50
2022-08-01T11:14:26.143Z,275.62
2022-08-01T11:15:29.674Z,264.38
2022-08-01T11:16:24.164Z,208.12
2022-08-01T11:17:19.721Z,168.75
2022-08-01T11:18:19.748Z,180.00
2022-08-01T11:19:20.684Z,157.50
2022-08-01T11:20:24.737Z,140.62
2022-08-01T11:21:59.454Z,146.25
2022-08-01T11:22:25.167Z,196.88
2022-08-01T11:23:21.610Z,646.88
2022-08-01T11:24:19.642Z,163.12
2022-08-01T11:25:19.638Z,146.25
2022-08-01T11:26:29.193Z,213.75
2022-08-01T11:27:23.385Z,1051.88
2022-08-01T11:28:29.107Z,241.88
2022-08-01T11:29:22.399Z,208.12
2022-08-01T11:30:21.323Z,225.00
2022-08-01T11:31:24.622Z,230.62
2022-08-01T11:32:19.589Z,1400.62
2022-08-01T11:33:19.530Z,1085.62
2022-08-01T11:34:19.657Z,725.62
2022-08-01T11:35:19.523Z,331.88
2022-08-01T11:36:31.999Z,365.62
2022-08-01T11:37:20.494Z,624.38
2022-08-01T11:38:19.475Z,506.25
2022-08-01T11:39:19.463Z,427.50
2022-08-01T11:40:19.454Z,472.50
2022-08-01T11:41:19.441Z,596.25
2022-08-01T11:42:24.465Z,382.50
2022-08-01T11:43:19.426Z,343.12
2022-08-01T11:44:20.945Z,376.88
2022-08-01T11:45:19.401Z,421.88
2022-08-01T11:46:19.387Z,472.50
2022-08-01T11:47:21.094Z,421.88
2022-08-01T11:48:19.367Z,393.75
2022-08-01T11:49:19.402Z,433.12
2022-08-01T11:50:19.342Z,421.88
2022-08-01T11:51:23.971Z,506.25
2022-08-01T11:52:20.539Z,376.88
2022-08-01T11:53:24.330Z,489.38
2022-08-01T11:54:35.195Z,725.62
2022-08-01T11:55:20.284Z,562.50
2022-08-01T11:56:19.276Z,511.88
2022-08-01T11:57:19.268Z,691.88
2022-08-01T11:58:22.227Z,714.38
2022-08-01T11:59:19.245Z,1299.38
2022-08-01T12:00:19.240Z,742.50
2022-08-01T12:01:19.223Z,1130.62
2022-08-01T12:02:19.258Z,354.38
2022-08-01T12:03:33.172Z,275.62
2022-08-01T12:04:25.212Z,382.50
2022-08-01T12:05:19.498Z,1951.88
2022-08-01T12:06:19.199Z,421.88
2022-08-01T12:07:19.155Z,928.12
2022-08-01T12:08:19.156Z,1181.25
2022-08-01T12:09:19.133Z,4286.25
2022-08-01T12:10:19.147Z,3358.12
2022-08-01T12:11:19.123Z,2030.62
2022-08-01T12:12:19.104Z,1687.50
2022-08-01T12:13:19.177Z,3600.00
2022-08-01T12:14:19.080Z,3993.75
2022-08-01T12:15:19.067Z,781.88
2022-08-01T12:16:19.065Z,579.38
2022-08-01T12:17:24.069Z,894.38
2022-08-01T12:18:19.071Z,540.00
2022-08-01T12:19:19.048Z,1333.12
2022-08-01T12:20:19.014Z,669.38
2022-08-01T12:21:19.008Z,607.50
2022-08-01T12:22:19.000Z,483.75
2022-08-01T12:23:18.997Z,590.62
2022-08-01T12:24:19.001Z,444.38
2022-08-01T12:25:18.958Z,1170.00
2022-08-01T12:26:29.435Z,1254.38
2022-08-01T12:27:19.937Z,2036.25
2022-08-01T12:28:18.938Z,1530.00
2022-08-01T12:29:18.916Z,2317.50
2022-08-01T12:30:23.987Z,2925.00
2022-08-01T12:31:18.919Z,2851.88
2022-08-01T12:32:18.906Z,2683.12
2022-08-01T12:33:19.931Z,1828.12
2022-08-01T12:34:18.861Z,3436.88
2022-08-01T12:35:18.871Z,2941.88
2022-08-01T12:36:18.842Z,1293.75
2022-08-01T12:37:18.866Z,331.88
2022-08-01T12:38:18.828Z,275.62
2022-08-01T12:39:18.811Z,270.00
2022-08-01T12:40:18.795Z,236.25
2022-08-01T12:41:18.786Z,230.62
2022-08-01T12:42:18.779Z,275.62
2022-08-01T12:43:27.907Z,241.88
2022-08-01T12:44:19.753Z,253.12
2022-08-01T12:45:18.744Z,219.38
2022-08-01T12:46:18.736Z,196.88
2022-08-01T12:47:18.722Z,208.12
2022-08-01T12:48:18.724Z,219.38
2022-08-01T12:49:18.770Z,236.25
2022-08-01T12:50:18.748Z,230.62
2022-08-01T12:51:18.678Z,225.00
2022-08-01T12:52:18.673Z,264.38
2022-08-01T12:53:18.667Z,292.50
2022-08-01T12:54:23.684Z,264.38
2022-08-01T12:55:18.651Z,253.12
2022-08-01T12:56:18.648Z,253.12
2022-08-01T12:57:18.640Z,236.25
2022-08-01T12:58:18.659Z,258.75
2022-08-01T12:59:18.595Z,247.50
2022-08-01T13:00:18.578Z,258.75
2022-08-01T13:01:18.657Z,270.00
2022-08-01T13:02:18.558Z,270.00
2022-08-01T13:03:18.579Z,303.75
2022-08-01T13:04:18.535Z,320.62
2022-08-01T13:05:23.550Z,270.00
2022-08-01T13:06:18.545Z,264.38
2022-08-01T13:07:18.532Z,219.38
2022-08-01T13:08:18.501Z,236.25
2022-08-01T13:09:18.485Z,292.50
2022-08-01T13:10:18.469Z,298.12
2022-08-01T13:11:18.583Z,281.25
2022-08-01T13:12:18.451Z,275.62
2022-08-01T13:13:28.152Z,236.25
2022-08-01T13:14:19.432Z,225.00
2022-08-01T13:15:18.416Z,219.38
2022-08-01T13:16:30.787Z,213.75
2022-08-01T13:17:19.394Z,230.62
2022-08-01T13:18:23.414Z,236.25
2022-08-01T13:19:18.397Z,258.75
2022-08-01T13:20:18.390Z,258.75
2022-08-01T13:21:18.351Z,270.00
2022-08-01T13:22:18.341Z,264.38
2022-08-01T13:24:01.245Z,264.38
2022-08-01T13:24:19.326Z,253.12
2022-08-01T13:25:22.092Z,253.12
2022-08-01T13:26:18.297Z,258.75
2022-08-01T13:27:18.305Z,241.88
2022-08-01T13:28:18.274Z,241.88
2022-08-01T13:29:18.281Z,241.88
2022-08-01T13:30:18.287Z,236.25
2022-08-01T13:31:23.264Z,270.00
2022-08-01T13:32:28.465Z,270.00
2022-08-01T13:33:19.242Z,258.75
2022-08-01T13:34:18.225Z,275.62
2022-08-01T13:35:18.210Z,281.25
2022-08-01T13:36:18.190Z,275.62
2022-08-01T13:37:18.191Z,258.75
2022-08-01T13:38:18.195Z,225.00
2022-08-01T13:39:18.196Z,196.88
2022-08-01T13:40:18.142Z,180.00
2022-08-01T13:41:18.141Z,202.50
2022-08-01T13:42:19.122Z,236.25
2022-08-01T13:43:18.127Z,281.25
2022-08-01T13:44:23.130Z,281.25
2022-08-01T13:45:18.125Z,264.38
2022-08-01T13:46:18.706Z,264.38
2022-08-01T13:47:18.112Z,208.12
2022-08-01T13:48:18.922Z,185.62
2022-08-01T13:49:18.954Z,213.75
2022-08-01T13:50:18.101Z,202.50
2022-08-01T13:51:22.136Z,213.75
2022-08-01T13:52:18.035Z,225.00
2022-08-01T13:53:18.001Z,247.50
2022-08-01T13:54:17.999Z,241.88
2022-08-01T13:55:17.983Z,247.50
2022-08-01T13:56:17.969Z,264.38
2022-08-01T13:57:22.978Z,270.00
2022-08-01T13:58:17.971Z,286.88
2022-08-01T13:59:17.970Z,258.75
2022-08-01T14:00:17.934Z,247.50
2022-08-01T14:01:17.975Z,253.12
2022-08-01T14:02:17.901Z,247.50
2022-08-01T14:03:17.890Z,247.50
2022-08-01T14:04:17.914Z,241.88
2022-08-01T14:05:17.868Z,253.12
2022-08-01T14:06:17.859Z,236.25
2022-08-01T14:07:17.849Z,230.62
2022-08-01T14:08:18.021Z,213.75
2022-08-01T14:09:24.346Z,208.12
2022-08-01T14:10:23.833Z,202.50
2022-08-01T14:11:17.834Z,196.88
2022-08-01T14:12:17.814Z,191.25
2022-08-01T14:13:17.818Z,196.88
2022-08-01T14:14:17.778Z,202.50
2022-08-01T14:15:36.858Z,196.88
2022-08-01T14:16:18.767Z,202.50
2022-08-01T14:17:17.743Z,208.12
2022-08-01T14:18:17.724Z,219.38
2022-08-01T14:19:17.728Z,219.38
2022-08-01T14:20:17.715Z,213.75
2022-08-01T14:21:17.711Z,219.38
2022-08-01T14:22:17.686Z,219.38
2022-08-01T14:23:22.768Z,225.00
2022-08-01T14:24:17.684Z,219.38
2022-08-01T14:25:24.105Z,236.25
2022-08-01T14:26:18.666Z,241.88
2022-08-01T14:27:17.628Z,247.50
2022-08-01T14:28:17.616Z,236.25
2022-08-01T14:29:17.605Z,213.75
2022-08-01T14:30:17.604Z,202.50
2022-08-01T14:31:17.586Z,185.62
2022-08-01T14:32:17.575Z,157.50
2022-08-01T14:33:17.567Z,146.25
2022-08-01T14:34:17.558Z,146.25
2022-08-01T14:35:17.553Z,146.25
2022-08-01T14:36:30.848Z,146.25
2022-08-01T14:37:18.632Z,146.25
2022-08-01T14:38:29.183Z,157.50
2022-08-01T14:39:18.494Z,163.12
2022-08-01T14:40:19.793Z,168.75
2022-08-01T14:41:17.507Z,168.75
2022-08-01T14:42:17.461Z,180.00
2022-08-01T14:43:24.915Z,174.38
2022-08-01T14:44:18.440Z,185.62
2022-08-01T14:45:17.443Z,196.88
2022-08-01T14:46:17.418Z,185.62
2022-08-01T14:47:22.739Z,191.25
2022-08-01T14:48:17.396Z,185.62
2022-08-01T14:49:17.412Z,191.25
2022-08-01T14:50:17.393Z,180.00
2022-08-01T14:51:17.367Z,180.00
2022-08-01T14:52:17.368Z,174.38
2022-08-01T14:53:17.375Z,185.62
2022-08-01T14:54:17.329Z,185.62
2022-08-01T14:55:18.330Z,174.38
2022-08-01T14:56:17.315Z,174.38
2022-08-01T14:57:17.299Z,174.38
2022-08-01T14:58:22.315Z,174.38
2022-08-01T14:59:20.964Z,174.38
2022-08-01T15:00:17.280Z,185.62
2022-08-01T15:01:17.332Z,174.38
2022-08-01T15:02:17.247Z,174.38
2022-08-01T15:03:17.231Z,180.00
2022-08-01T15:04:17.219Z,168.75
2022-08-01T15:05:17.223Z,157.50
2022-08-01T15:06:17.200Z,151.88
2022-08-01T15:07:17.188Z,146.25
2022-08-01T15:08:17.182Z,135.00
2022-08-01T15:09:22.190Z,129.38
2022-08-01T15:10:17.162Z,129.38
2022-08-01T15:11:17.147Z,129.38
2022-08-01T15:12:17.130Z,135.00
2022-08-01T15:13:17.133Z,129.38
2022-08-01T15:14:17.111Z,135.00
2022-08-01T15:15:17.118Z,140.62
2022-08-01T15:16:17.086Z,140.62
2022-08-01T15:17:17.080Z,140.62
2022-08-01T15:18:17.066Z,146.25
2022-08-01T15:19:17.764Z,146.25
2022-08-01T15:20:22.081Z,151.88
2022-08-01T15:21:34.464Z,151.88
2022-08-01T15:22:18.023Z,146.25
2022-08-01T15:23:17.020Z,140.62
2022-08-01T15:24:17.007Z,146.25
2022-08-01T15:25:16.992Z,140.62
2022-08-01T15:26:16.987Z,135.00
2022-08-01T15:27:16.966Z,135.00
2022-08-01T15:28:16.956Z,135.00
2022-08-01T15:29:16.946Z,135.00
2022-08-01T15:30:16.934Z,129.38
2022-08-01T15:31:22.959Z,135.00
2022-08-01T15:32:16.913Z,140.62
2022-08-01T15:33:16.922Z,129.38
2022-08-01T15:34:16.887Z,135.00
2022-08-01T15:35:16.878Z,129.38
2022-08-01T15:36:16.880Z,135.00
2022-08-01T15:37:17.857Z,129.38
2022-08-01T15:38:16.846Z,123.75
2022-08-01T15:39:16.835Z,129.38
2022-08-01T15:40:16.825Z,129.38
2022-08-01T15:41:16.858Z,129.38
2022-08-01T15:42:27.147Z,123.75
2022-08-01T15:43:17.790Z,135.00
2022-08-01T15:44:16.784Z,135.00
2022-08-01T15:45:44.591Z,129.38
2022-08-01T15:46:17.766Z,135.00
2022-08-01T15:47:16.747Z,135.00
2022-08-01T15:48:16.746Z,135.00
2022-08-01T15:49:16.866Z,118.12
2022-08-01T15:50:16.725Z,118.12
2022-08-01T15:51:16.713Z,118.12
2022-08-01T15:52:21.751Z,112.50
2022-08-01T15:53:22.702Z,118.12
2022-08-01T15:54:16.670Z,118.12
2022-08-01T15:55:16.666Z,118.12
2022-08-01T15:56:16.657Z,112.50
2022-08-01T15:57:16.648Z,112.50
2022-08-01T15:58:16.624Z,118.12
2022-08-01T15:59:16.613Z,112.50
2022-08-01T16:00:16.600Z,112.50
2022-08-01T16:01:16.665Z,112.50
2022-08-01T16:02:16.701Z,112.50
2022-08-01T16:03:16.569Z,106.88
2022-08-01T16:04:21.580Z,118.12
2022-08-01T16:05:20.337Z,123.75
2022-08-01T16:06:16.573Z,118.12
2022-08-01T16:07:16.529Z,123.75
2022-08-01T16:08:16.518Z,123.75
2022-08-01T16:09:18.344Z,123.75
2022-08-01T16:10:16.512Z,123.75
2022-08-01T16:11:16.497Z,123.75
2022-08-01T16:12:16.469Z,123.75
2022-08-01T16:13:16.464Z,112.50
2022-08-01T16:14:16.520Z,106.88
2022-08-01T16:15:21.464Z,106.88
2022-08-01T16:16:16.439Z,101.25
2022-08-01T16:17:16.445Z,95.62
2022-08-01T16:18:16.402Z,95.62
2022-08-01T16:19:19.275Z,90.00
2022-08-01T16:20:16.382Z,90.00
2022-08-01T16:21:16.382Z,84.38
2022-08-01T16:22:16.359Z,84.38
2022-08-01T16:23:16.352Z,84.38
2022-08-01T16:24:16.337Z,84.38
2022-08-01T16:25:16.340Z,78.75
2022-08-01T16:26:27.904Z,84.38
2022-08-01T16:27:17.304Z,78.75
2022-08-01T16:28:16.293Z,78.75
2022-08-01T16:29:16.301Z,84.38
2022-08-01T16:30:16.289Z,84.38
2022-08-01T16:31:34.242Z,90.00
2022-08-01T16:32:28.314Z,90.00
2022-08-01T16:33:42.902Z,90.00
2022-08-01T16:34:17.229Z,90.00
2022-08-01T16:35:16.221Z,95.62